Fire Weather Observation
Issued by NWS Grand Junction, CO

Home | Current Version | Previous Version | Text Only | Print | Product List | Glossary Off
Versions: 1 2 3 4 5 6 7 8 9 10 11 12 13 14 15 16 17 18 19 20 21 22 23 24 25 26 27 28 29

000
SHUS65 KGJT 212018
FWOGJT

DAILY FIRE WEATHER OBSERVATION
NATIONAL WEATHER SERVICE GRAND JUNCTION CO
212 PM MDT SUN MAY 21 2017

STATE OF THE WEATHER (W)               3
DRY BULB TEMPERATURE                   70   DEGREES FAHRENHEIT
RELATIVE HUMIDITY (RH)                 23   PERCENT
LIGHTNING ACTIVITY LEVEL
  (LAL - MIDNIGHT TO 2 PM)             1
WIND DIRECTION                         315  DEGREES (C IF CALM)
WIND SPEED                             8    MPH
MAX TEMP (2 PM - 2 PM)                 70   DEGREES FAHRENHEIT
MIN TEMP (2 PM - 2 PM)                 43   DEGREES FAHRENHEIT
MAX RH (2 PM - 2 PM)                   70   PERCENT
MIN RH (2 PM - 2 PM)                   21   PERCENT
PCPN DURATION                          0.0  HOURS
PCPN AMT (2 PM - 2 PM)                 0.0  INCHES
LAL (2 PM - 2 PM)                      1

$$

METAR KGJT 211953Z 32007KT 10SM OVC110 21/M01 A3013 RMK AO2
      SLP159 T02111011



USA.gov is the U.S. government's official web portal to all federal, state and local government web resources and services.